PST: 08:19 MST: 09:19 CST: 10:19 EST: 11:19 LDN: 16:19 UTC: 15:19
User Agent: CCBot/2.0 (https://commoncrawl.org/faq/)
IP Address: 54.224.108.238
Hostname: ec2-54-224-108-238.compute-1.amazonaws.com

METAR:
KBFI 141453Z 00000KT 4SM HZ FU CLR 18/15 A2996 RMK AO2 SLP145 T01830150 53004
KBFI 141353Z 00000KT 4SM HZ FU CLR 18/15 A2995 RMK AO2 SLP143 T01780150
KBFI 141253Z 00000KT 5SM HZ FU CLR 18/14 A2995 RMK AO2 SLP141 T01780144
KBFI 141153Z AUTO 00000KT 6SM HZ FU CLR 18/14 A2995 RMK AO2 SLP141 T01780144 10206 20172 58006

TAF:
KBFI 141417Z 1414/1512 VRB03KT 4SM HZ FU SCT045
FM 141800 32005KT 6SM HZ FU SCT045
FM 142200 32006KT P6SM SCT050
FM 150300 VRB04KT P6SM FEW060

KBFI 141142Z 1412/1512 VRB03KT 6SM HZ FU SCT045
FM 141800 32005KT 6SM HZ FU SCT045
FM 142200 32006KT P6SM SCT050
FM 150300 VRB04KT P6SM FEW060

KBFI 140912Z 1409/1506 VRB03KT 6SM HZ FU SCT045
FM 141900 31006KT 6SM HZ FU SCT045
FM 150300 VRB04KT P6SM SKC

KBFI 140520Z 1406/1506 VRB03KT 6SM HZ FU BKN045
FM 141800 31006KT 6SM HZ FU SCT045

KBFI 132322Z 1400/1424 32006KT 6SM HZ FU SCT050
FM 140600 VRB03KT 5SM HZ FU SCT035
FM 141800 31006KT 6SM HZ FU SCT030

KBFI 131724Z 1318/1418 06007KT 6SM HZ FU SCT050
FM 131900 32006KT 6SM HZ FU SCT050
FM 140600 VRB03KT 5SM HZ FU SCT035

KBFI 131503Z 1315/1412 00000KT P6SM SCT010 SCT200
FM 131900 32008KT P6SM SCT080
FM 140600 VRB03KT P6SM SCT080

KBFI 131120Z 1312/1412 00000KT P6SM SCT200
FM 131900 32008KT P6SM SCT080
FM 140600 VRB03KT P6SM SCT080